Time;durP1;ratioP1;P1;durP2;ratioP2;P2;SDS_P1;SDS_P2;PMS_P1;PMS_P2;Temp;Humidity;BMP_temperature;BMP_pressure;BME280_temperature;BME280_humidity;BME280_pressure;Samples;Min_cycle;Max_cycle;Signal;HPM_P1;HPM_P2
2022/05/01 00:00:15;;;;;;;11.32;4.50;;;;;;;15.35;63.52;102073.00;7384265;19;20033;-64
2022/05/01 00:02:42;;;;;;;8.55;4.22;;;;;;;15.39;63.39;102074.34;7382052;19;20022;-64
2022/05/01 00:05:09;;;;;;;12.82;4.40;;;;;;;15.41;63.33;102068.91;7384556;19;20014;-65
2022/05/01 00:07:36;;;;;;;8.02;4.15;;;;;;;15.40;63.13;102064.56;7382887;19;20078;-65
2022/05/01 00:10:04;;;;;;;11.75;4.03;;;;;;;15.39;63.44;102062.91;7384107;19;20030;-64
2022/05/01 00:12:32;;;;;;;11.38;4.43;;;;;;;15.38;63.91;102069.22;7386707;19;20019;-66
2022/05/01 00:14:59;;;;;;;8.30;4.80;;;;;;;15.37;63.54;102075.50;7388426;19;20094;-64
2022/05/01 00:17:26;;;;;;;8.18;4.20;;;;;;;15.38;64.49;102067.41;7385029;19;20356;-66
2022/05/01 00:19:55;;;;;;;10.27;5.18;;;;;;;15.39;65.01;102070.84;7386668;19;20010;-63
2022/05/01 00:22:22;;;;;;;9.52;4.28;;;;;;;15.39;64.50;102070.84;7384691;19;20014;-64
2022/05/01 00:24:49;;;;;;;9.30;5.15;;;;;;;15.39;63.92;102063.72;7387275;19;20014;-65
2022/05/01 00:27:17;;;;;;;11.70;5.25;;;;;;;15.41;65.38;102063.59;7386147;19;20021;-65
2022/05/01 00:29:44;;;;;;;11.30;4.22;;;;;;;15.39;63.81;102066.38;7385303;19;20042;-65
2022/05/01 00:32:15;;;;;;;11.15;5.82;;;;;;;15.37;63.65;102057.78;7386133;19;20022;-63
2022/05/01 00:37:20;;;;;;;7.65;5.63;;;;;;;15.35;64.69;102056.25;7386713;19;20038;-66
2022/05/01 00:39:50;;;;;;;8.43;4.30;;;;;;;15.35;64.18;102048.28;7388002;19;20714;-64
2022/05/01 00:42:18;;;;;;;7.55;3.75;;;;;;;15.36;63.17;102055.25;7387539;19;20006;-65
2022/05/01 00:44:46;;;;;;;11.13;4.93;;;;;;;15.34;64.42;102038.66;7386417;19;20022;-66
2022/05/01 00:47:13;;;;;;;10.80;4.72;;;;;;;15.28;63.24;102042.78;7385249;19;20031;-66
2022/05/01 00:49:40;;;;;;;9.82;4.28;;;;;;;15.23;63.54;102037.09;7385978;19;20014;-64
2022/05/01 00:52:09;;;;;;;10.48;5.03;;;;;;;15.21;64.93;102044.38;7388077;19;20074;-65
2022/05/01 00:54:39;;;;;;;12.57;4.50;;;;;;;15.17;63.93;102042.19;7385389;19;20440;-66
2022/05/01 00:57:07;;;;;;;10.90;5.55;;;;;;;15.13;63.27;102035.53;7387594;19;20178;-65
2022/05/01 00:59:36;;;;;;;9.18;4.60;;;;;;;15.10;63.35;102038.47;7385191;19;20400;-65
2022/05/01 01:02:03;;;;;;;9.23;4.80;;;;;;;15.05;64.56;102036.25;7388264;19;20038;-65
2022/05/01 01:04:31;;;;;;;13.80;4.72;;;;;;;15.06;63.64;102029.16;7384363;19;20051;-63
2022/05/01 01:06:58;;;;;;;8.55;3.92;;;;;;;15.03;63.48;102032.13;7387387;19;20038;-64
2022/05/01 01:09:25;;;;;;;9.32;4.97;;;;;;;15.02;64.18;102028.63;7386382;19;20047;-65
2022/05/01 01:12:53;;;;;;;9.35;4.60;;;;;;;15.00;63.79;102030.59;7383161;19;20432;-68
2022/05/01 01:14:42;;;;;;;9.73;4.20;;;;;;;14.93;63.66;102030.34;7388941;19;20006;-64
2022/05/01 01:17:11;;;;;;;10.38;4.90;;;;;;;14.87;64.82;102027.50;7387613;19;20392;-65
2022/05/01 01:19:38;;;;;;;12.57;4.88;;;;;;;14.85;64.62;102024.97;7384802;19;20014;-64
2022/05/01 01:22:08;;;;;;;9.20;4.18;;;;;;;14.87;64.24;102024.84;7387691;19;20019;-67
2022/05/01 01:24:39;;;;;;;12.68;4.80;;;;;;;14.87;63.85;102020.38;7383969;19;20048;-64
2022/05/01 01:27:06;;;;;;;9.35;4.72;;;;;;;14.89;64.83;102023.69;7385256;19;20018;-66
2022/05/01 01:32:12;;;;;;;7.28;4.78;;;;;;;14.89;64.06;102018.38;7388296;19;20279;-65
2022/05/01 01:34:42;;;;;;;9.50;4.28;;;;;;;14.87;64.16;102023.03;7386023;19;20026;-64
2022/05/01 01:37:11;;;;;;;8.88;4.65;;;;;;;14.86;63.96;102020.50;7384986;19;20333;-65
2022/05/01 01:39:39;;;;;;;10.88;5.22;;;;;;;14.85;64.18;102016.19;7385829;19;20432;-64
2022/05/01 01:42:11;;;;;;;9.98;4.43;;;;;;;14.84;64.49;102011.88;7384565;19;20048;-66
2022/05/01 01:44:41;;;;;;;12.82;6.53;;;;;;;14.84;64.26;102009.22;7383955;19;20017;-64
2022/05/01 01:47:12;;;;;;;14.25;5.13;;;;;;;14.82;65.04;102013.84;7386308;19;20027;-63
2022/05/01 01:49:39;;;;;;;8.80;4.60;;;;;;;14.78;65.24;102013.31;7383660;19;20025;-64
2022/05/01 01:52:06;;;;;;;9.95;4.82;;;;;;;14.80;66.51;102011.34;7385848;19;20093;-64
2022/05/01 01:54:33;;;;;;;10.05;6.18;;;;;;;14.79;67.48;102007.03;7382942;19;20018;-62
2022/05/01 01:57:00;;;;;;;10.13;4.68;;;;;;;14.76;65.96;102012.66;7385939;19;20024;-66
2022/05/01 01:59:27;;;;;;;9.35;4.28;;;;;;;14.70;64.71;102002.63;7382853;19;20019;-63
2022/05/01 02:01:54;;;;;;;9.73;4.35;;;;;;;14.69;65.38;102000.97;7383800;19;20079;-66
2022/05/01 02:04:21;;;;;;;12.15;5.68;;;;;;;14.67;65.48;102010.06;7386529;19;20021;-67
2022/05/01 02:06:48;;;;;;;8.20;4.88;;;;;;;14.65;66.22;101993.47;7384037;19;20014;-65
2022/05/01 02:09:16;;;;;;;9.30;5.20;;;;;;;14.63;66.52;101992.81;7386695;19;20014;-64
2022/05/01 02:11:43;;;;;;;9.23;5.50;;;;;;;14.62;66.73;101999.94;7385350;19;20014;-66
2022/05/01 02:14:10;;;;;;;9.88;4.82;;;;;;;14.62;66.80;102005.22;7383070;19;20023;-65
2022/05/01 02:16:39;;;;;;;13.43;6.60;;;;;;;14.63;66.31;102001.56;7384310;19;20074;-66
2022/05/01 02:19:07;;;;;;;12.88;5.20;;;;;;;14.60;65.92;102001.03;7382732;19;20448;-65
2022/05/01 02:21:34;;;;;;;11.35;4.97;;;;;;;14.55;65.41;101996.19;7380683;19;20038;-64
2022/05/01 02:24:06;;;;;;;10.05;5.03;;;;;;;14.53;65.11;101998.16;7386150;19;20009;-66
2022/05/01 02:26:35;;;;;;;10.35;5.38;;;;;;;14.49;66.62;101997.63;7386003;19;20018;-65
2022/05/01 02:29:09;;;;;;;11.70;4.78;;;;;;;14.47;66.29;101990.81;7381967;19;20014;-67
2022/05/01 02:31:38;;;;;;;15.57;6.47;;;;;;;14.45;66.64;101985.66;7387689;19;20010;-64
2022/05/01 02:34:06;;;;;;;8.07;4.45;;;;;;;14.42;66.00;101988.63;7391495;19;20007;-65
2022/05/01 02:36:33;;;;;;;11.75;5.65;;;;;;;14.43;65.78;101986.78;7389450;19;20888;-66
2022/05/01 02:39:00;;;;;;;9.90;5.00;;;;;;;14.45;66.29;101982.19;7393604;19;20037;-65
2022/05/01 02:41:28;;;;;;;10.50;4.78;;;;;;;14.44;65.60;101977.88;7389737;19;20017;-63
2022/05/01 02:43:56;;;;;;;8.65;4.90;;;;;;;14.43;65.58;101976.19;7390606;19;20365;-64
2022/05/01 02:46:26;;;;;;;11.18;5.60;;;;;;;14.43;65.90;101969.09;7389872;19;20010;-65
2022/05/01 02:48:55;;;;;;;11.55;4.68;;;;;;;14.39;65.76;101964.25;7390211;19;20014;-65
2022/05/01 02:51:21;;;;;;;10.20;4.65;;;;;;;14.35;65.73;101966.31;7391154;19;20007;-65
2022/05/01 02:53:48;;;;;;;11.43;5.70;;;;;;;14.28;65.35;101967.88;7388982;19;20436;-64
2022/05/01 02:56:16;;;;;;;9.35;4.63;;;;;;;14.20;65.98;101959.88;7389046;19;20014;-67
2022/05/01 02:58:43;;;;;;;10.55;5.10;;;;;;;14.14;66.03;101958.66;7391385;19;20022;-66
2022/05/01 03:01:10;;;;;;;11.65;5.25;;;;;;;14.14;66.27;101953.34;7392611;19;20014;-66
2022/05/01 03:03:37;;;;;;;12.75;4.82;;;;;;;14.18;65.97;101955.69;7387467;19;20029;-65
2022/05/01 03:06:04;;;;;;;12.15;5.00;;;;;;;14.17;66.15;101952.22;7393164;19;20022;-64
2022/05/01 03:08:30;;;;;;;11.00;5.20;;;;;;;14.19;66.09;101955.56;7388538;19;20372;-66
2022/05/01 03:10:56;;;;;;;11.02;5.05;;;;;;;14.24;66.15;101952.47;7391353;19;20015;-65
2022/05/01 03:13:23;;;;;;;12.75;5.70;;;;;;;14.30;66.76;101957.16;7392703;19;20018;-64
2022/05/01 03:15:50;;;;;;;10.73;5.28;;;;;;;14.31;65.54;101956.19;7393351;19;20018;-65
2022/05/01 03:23:30;;;;;;;9.98;5.10;;;;;;;14.25;65.73;101949.66;7387437;19;20014;-65
2022/05/01 03:25:58;;;;;;;14.40;5.55;;;;;;;14.23;65.83;101951.63;7388992;19;20014;-63
2022/05/01 03:28:25;;;;;;;10.50;4.85;;;;;;;14.22;65.44;101949.16;7387721;19;20078;-64
2022/05/01 03:30:52;;;;;;;12.65;5.57;;;;;;;14.22;65.69;101943.84;7391110;19;20018;-65
2022/05/01 03:33:21;;;;;;;11.77;5.82;;;;;;;14.20;66.00;101946.63;7387622;19;20014;-65
2022/05/01 03:35:49;;;;;;;11.43;4.93;;;;;;;14.20;65.56;101941.34;7387145;19;20015;-65
2022/05/01 03:38:17;;;;;;;11.52;5.35;;;;;;;14.21;65.97;101945.66;7387771;19;20576;-64
2022/05/01 03:40:47;;;;;;;10.68;4.88;;;;;;;14.26;65.78;101939.91;7387463;19;20018;-65
2022/05/01 03:43:16;;;;;;;11.95;5.05;;;;;;;14.27;65.32;101942.41;7388309;19;20322;-65
2022/05/01 03:45:43;;;;;;;11.57;5.28;;;;;;;14.26;64.94;101939.91;7390753;19;20034;-65
2022/05/01 03:48:11;;;;;;;11.60;5.15;;;;;;;14.22;64.62;101941.19;7389368;19;20460;-66
2022/05/01 03:50:39;;;;;;;12.73;5.38;;;;;;;14.18;64.94;101938.00;7386895;19;20017;-64
2022/05/01 03:53:07;;;;;;;8.27;4.50;;;;;;;14.16;64.88;101931.19;7390369;19;20010;-64
2022/05/01 03:55:33;;;;;;;11.05;4.95;;;;;;;14.17;64.61;101935.53;7389111;19;20024;-68
2022/05/01 03:58:00;;;;;;;11.30;4.75;;;;;;;14.19;64.57;101933.53;7384720;19;20431;-64
2022/05/01 04:00:27;;;;;;;9.88;4.32;;;;;;;14.20;65.74;101936.03;7393833;19;20010;-63
2022/05/01 04:02:54;;;;;;;9.10;4.72;;;;;;;14.18;64.57;101919.47;7384854;19;20022;-64
2022/05/01 04:05:21;;;;;;;11.50;5.72;;;;;;;14.21;65.44;101921.00;7391103;19;20596;-64
2022/05/01 04:07:48;;;;;;;10.35;4.63;;;;;;;14.23;64.43;101925.16;7390477;19;20038;-65
2022/05/01 04:10:15;;;;;;;10.80;4.30;;;;;;;14.21;63.88;101924.47;7389045;19;20015;-66
2022/05/01 04:12:43;;;;;;;9.60;4.85;;;;;;;14.18;64.00;101932.69;7389660;19;20014;-66
2022/05/01 04:15:13;;;;;;;11.57;4.80;;;;;;;14.16;64.12;101928.56;7387862;19;20483;-65
2022/05/01 04:17:41;;;;;;;10.07;4.70;;;;;;;14.14;64.13;101926.03;7387218;19;20003;-63
2022/05/01 04:20:09;;;;;;;10.45;4.72;;;;;;;14.12;63.77;101923.53;7388150;19;20018;-63
2022/05/01 04:22:38;;;;;;;10.60;5.63;;;;;;;14.12;65.18;101917.41;7386527;19;20186;-65
2022/05/01 04:25:15;;;;;;;8.65;4.88;;;;;;;14.12;64.83;101922.69;7386561;19;20014;-64
2022/05/01 04:27:44;;;;;;;10.20;4.18;;;;;;;14.13;64.36;101925.22;7388082;19;20456;-63
2022/05/01 04:30:13;;;;;;;12.00;4.57;;;;;;;14.11;63.84;101924.53;7386471;19;20724;-65
2022/05/01 04:32:50;;;;;;;11.88;5.40;;;;;;;14.11;64.08;101923.72;7385614;19;20019;-65
2022/05/01 04:35:32;;;;;;;9.55;4.03;;;;;;;14.12;63.86;101915.59;7387407;19;20355;-65
2022/05/01 04:38:01;;;;;;;10.23;4.45;;;;;;;14.12;63.64;101917.41;7388953;19;20032;-66
2022/05/01 04:40:30;;;;;;;11.73;5.93;;;;;;;14.12;65.08;101920.06;7384927;19;20034;-66
2022/05/01 04:43:01;;;;;;;8.48;4.65;;;;;;;14.11;64.91;101918.41;7388226;19;20110;-65
2022/05/01 04:45:30;;;;;;;8.73;4.40;;;;;;;14.12;64.20;101917.41;7385488;19;20010;-66
2022/05/01 04:47:58;;;;;;;11.43;4.63;;;;;;;14.15;63.96;101911.84;7387822;19;20330;-64
2022/05/01 04:50:26;;;;;;;10.38;4.60;;;;;;;14.18;64.17;101915.97;7385223;19;20570;-64
2022/05/01 04:52:53;;;;;;;8.98;4.78;;;;;;;14.17;63.62;101915.16;7387495;19;20558;-63
2022/05/01 04:55:20;;;;;;;8.38;4.30;;;;;;;14.18;63.40;101915.97;7386163;19;20021;-65
2022/05/01 04:57:47;;;;;;;9.45;4.40;;;;;;;14.15;62.98;101911.84;7387703;19;20006;-65
2022/05/01 05:00:14;;;;;;;7.38;4.07;;;;;;;14.15;63.62;101914.47;7387020;19;20032;-65
2022/05/01 05:02:42;;;;;;;11.05;5.07;;;;;;;14.16;63.05;101915.31;7383561;19;20010;-65
2022/05/01 05:05:11;;;;;;;9.38;5.00;;;;;;;14.14;64.91;101918.09;7385264;19;20026;-65
2022/05/01 05:07:39;;;;;;;16.02;4.97;;;;;;;14.14;63.72;101916.28;7385643;19;20010;-63
2022/05/01 05:10:08;;;;;;;9.65;4.82;;;;;;;14.14;64.36;101921.59;7388683;19;20184;-65
2022/05/01 05:12:36;;;;;;;9.68;4.45;;;;;;;14.12;63.50;101915.59;7384444;19;20034;-65
2022/05/01 05:15:08;;;;;;;11.77;5.85;;;;;;;14.15;63.24;101925.06;7386534;19;20026;-65
2022/05/01 05:17:36;;;;;;;11.55;4.88;;;;;;;14.16;63.64;101918.81;7385233;19;20010;-68
2022/05/01 05:20:05;;;;;;;11.38;5.38;;;;;;;14.16;63.00;101923.25;7385022;19;20692;-64
2022/05/01 05:22:32;;;;;;;8.48;4.40;;;;;;;14.12;62.72;101920.88;7385240;19;20019;-64
2022/05/01 05:24:59;;;;;;;8.32;4.60;;;;;;;14.13;62.95;101917.28;7389294;19;20034;-67
2022/05/01 05:27:26;;;;;;;10.27;4.35;;;;;;;14.14;63.08;101923.41;7385493;19;20337;-64
2022/05/01 05:29:55;;;;;;;13.98;6.47;;;;;;;14.17;63.91;101920.44;7385183;19;20014;-68
2022/05/01 05:32:24;;;;;;;11.50;5.05;;;;;;;14.22;63.39;101922.66;7387971;19;20102;-64
2022/05/01 05:34:51;;;;;;;12.35;5.63;;;;;;;14.25;63.86;101920.53;7383726;19;20010;-64
2022/05/01 05:37:19;;;;;;;10.63;4.82;;;;;;;14.26;63.65;101924.88;7385091;19;20021;-65
2022/05/01 05:39:46;;;;;;;10.68;6.22;;;;;;;14.29;63.58;101929.00;7382568;19;20006;-67
2022/05/01 05:42:14;;;;;;;10.48;4.63;;;;;;;14.32;63.17;101920.78;7386636;19;20434;-63
2022/05/01 05:44:43;;;;;;;8.15;4.10;;;;;;;14.36;62.55;101928.31;7383746;19;20034;-63
2022/05/01 05:47:10;;;;;;;13.05;5.60;;;;;;;14.38;63.44;101928.13;7388801;19;20006;-65
2022/05/01 05:49:41;;;;;;;9.90;5.20;;;;;;;14.42;62.47;101917.13;7382579;19;20042;-65
2022/05/01 05:52:18;;;;;;;14.43;5.65;;;;;;;14.42;62.00;101922.41;7386240;19;20014;-66
2022/05/01 05:54:45;;;;;;;9.25;5.00;;;;;;;14.38;62.10;101920.19;7382557;19;20023;-66
2022/05/01 05:57:12;;;;;;;9.48;4.72;;;;;;;14.39;61.77;101925.34;7383884;19;20022;-64
2022/05/01 05:59:39;;;;;;;11.02;4.85;;;;;;;14.39;61.28;101922.69;7382533;19;20010;-65
2022/05/01 06:02:07;;;;;;;13.13;5.93;;;;;;;14.39;62.35;101930.66;7382983;19;20109;-67
2022/05/01 06:04:34;;;;;;;12.23;4.80;;;;;;;14.42;61.63;101933.00;7385415;19;20361;-66
2022/05/01 06:07:01;;;;;;;9.93;5.20;;;;;;;14.46;61.51;101933.53;7382925;19;20011;-64
2022/05/01 06:09:28;;;;;;;10.65;5.03;;;;;;;14.48;61.45;101926.25;7383300;19;20074;-64
2022/05/01 06:11:55;;;;;;;9.90;4.47;;;;;;;14.50;62.14;101926.94;7387208;19;20337;-65
2022/05/01 06:14:22;;;;;;;9.05;4.85;;;;;;;14.53;61.07;101926.63;7384067;19;20014;-64
2022/05/01 06:16:48;;;;;;;11.45;4.97;;;;;;;14.53;60.95;101923.97;7384768;19;20535;-64
2022/05/01 06:19:15;;;;;;;10.15;4.43;;;;;;;14.54;60.96;101918.53;7385788;19;20631;-65
2022/05/01 06:21:42;;;;;;;8.52;4.25;;;;;;;14.57;60.87;101917.44;7386821;19;20017;-65
2022/05/01 06:24:09;;;;;;;9.43;4.85;;;;;;;14.59;60.58;101922.53;7382499;19;20019;-64
2022/05/01 06:26:36;;;;;;;10.07;4.55;;;;;;;14.62;60.40;101925.75;7381857;19;20018;-65
2022/05/01 06:29:04;;;;;;;9.57;5.78;;;;;;;14.67;60.78;101920.81;7383356;19;20139;-64
2022/05/01 06:31:31;;;;;;;8.52;4.55;;;;;;;14.72;60.05;101925.66;7385487;19;20086;-66
2022/05/01 06:33:58;;;;;;;8.90;4.78;;;;;;;14.75;59.93;101928.84;7381784;19;20035;-66
2022/05/01 06:36:25;;;;;;;10.40;4.97;;;;;;;14.77;60.63;101931.34;7385151;19;20017;-68
2022/05/01 06:38:52;;;;;;;12.88;4.60;;;;;;;14.78;60.81;101925.88;7381134;19;20022;-64
2022/05/01 06:41:19;;;;;;;8.00;4.03;;;;;;;14.83;60.57;101926.25;7381546;19;20024;-65
2022/05/01 06:43:46;;;;;;;8.63;5.70;;;;;;;14.90;60.97;101923.81;7378897;19;20014;-63
2022/05/01 06:46:13;;;;;;;17.40;6.25;;;;;;;14.91;60.83;101931.63;7384496;19;20079;-67
2022/05/01 06:48:40;;;;;;;10.40;4.38;;;;;;;14.93;59.98;101928.81;7382069;19;20553;-66
2022/05/01 06:51:07;;;;;;;10.82;5.00;;;;;;;14.94;60.34;101933.94;7384546;19;20478;-64
2022/05/01 06:53:34;;;;;;;8.07;4.80;;;;;;;14.98;59.72;101927.34;7383339;19;20010;-65
2022/05/01 06:56:01;;;;;;;12.02;4.38;;;;;;;14.99;60.04;101929.03;7382661;19;20010;-64
2022/05/01 06:58:28;;;;;;;11.88;4.43;;;;;;;14.99;60.76;101923.72;7385744;19;20015;-64
2022/05/01 07:00:55;;;;;;;9.57;4.90;;;;;;;14.96;59.78;101921.38;7381781;19;20083;-66
2022/05/01 07:03:22;;;;;;;12.88;4.43;;;;;;;14.97;60.45;101924.88;7380331;19;20470;-65
2022/05/01 07:05:50;;;;;;;8.85;4.47;;;;;;;14.93;59.50;101919.03;7381562;19;20006;-64
2022/05/01 07:08:17;;;;;;;9.23;5.13;;;;;;;14.95;60.35;101924.19;7384694;19;20101;-67
2022/05/01 07:10:44;;;;;;;9.95;4.65;;;;;;;14.98;60.42;101922.06;7381640;19;20091;-66
2022/05/01 07:13:11;;;;;;;10.05;5.78;;;;;;;15.02;60.33;101922.59;7379346;19;20381;-64
2022/05/01 07:15:38;;;;;;;10.55;4.95;;;;;;;15.01;60.30;101923.56;7380597;19;20034;-65
2022/05/01 07:18:06;;;;;;;9.27;4.68;;;;;;;15.05;59.29;101926.75;7385938;19;20019;-66
2022/05/01 07:20:36;;;;;;;9.07;4.88;;;;;;;15.07;61.77;101919.47;7390071;19;20013;-66
2022/05/01 07:23:06;;;;;;;;;;;;;;;15.09;59.79;101922.78;7390783;19;20010;-64
2022/05/01 07:25:33;;;;;;;11.82;6.80;;;;;;;15.09;59.73;101918.31;7387995;19;19907;-68
2022/05/01 07:28:00;;;;;;;9.52;4.72;;;;;;;15.14;62.14;101923.16;7389069;19;20003;-65
2022/05/01 07:30:27;;;;;;;12.55;4.38;;;;;;;15.18;58.99;101913.94;7391011;19;20025;-65
2022/05/01 07:32:53;;;;;;;7.97;4.13;;;;;;;15.20;59.77;101914.59;7391239;19;20017;-63
2022/05/01 07:35:20;;;;;;;9.95;4.47;;;;;;;15.21;58.25;101917.09;7390477;19;20324;-66
2022/05/01 07:37:48;;;;;;;9.13;4.35;;;;;;;15.22;58.33;101918.75;7386523;19;20010;-65
2022/05/01 07:40:15;;;;;;;9.02;4.63;;;;;;;15.23;58.48;101920.44;7392619;19;20011;-65
2022/05/01 07:42:42;;;;;;;9.57;4.22;;;;;;;15.25;58.22;101920.25;7389623;19;20022;-65
2022/05/01 07:45:09;;;;;;;11.00;3.90;;;;;;;15.28;57.94;101923.44;7386358;19;20082;-64
2022/05/01 07:47:36;;;;;;;7.68;4.00;;;;;;;15.27;58.24;101919.13;7389150;19;20017;-66
2022/05/01 07:50:04;;;;;;;9.20;3.97;;;;;;;15.32;59.09;101916.84;7392365;19;20413;-65
2022/05/01 07:52:31;;;;;;;8.05;3.65;;;;;;;15.39;57.97;101924.97;7387975;19;20014;-63
2022/05/01 07:54:58;;;;;;;9.82;3.70;;;;;;;15.44;57.28;101927.19;7389693;19;20014;-64
2022/05/01 07:57:26;;;;;;;8.93;3.92;;;;;;;15.45;58.30;101926.16;7391251;19;20021;-66
2022/05/01 07:59:54;;;;;;;7.38;3.78;;;;;;;15.50;57.45;101916.75;7387648;19;20042;-63
2022/05/01 08:02:21;;;;;;;10.13;3.95;;;;;;;15.54;56.65;101930.59;7393237;19;20014;-65
2022/05/01 08:04:48;;;;;;;10.48;4.70;;;;;;;15.58;56.86;101927.44;7384573;19;20381;-64
2022/05/01 08:07:16;;;;;;;10.40;4.03;;;;;;;15.62;57.79;101926.16;7390367;19;20019;-64
2022/05/01 08:09:43;;;;;;;7.70;3.95;;;;;;;15.66;55.62;101919.53;7385558;19;20011;-66
2022/05/01 08:12:10;;;;;;;6.10;3.47;;;;;;;15.67;55.14;101926.50;7387221;19;20010;-65
2022/05/01 08:14:44;;;;;;;8.50;3.58;;;;;;;15.67;54.84;101921.19;7386620;19;20471;-66
2022/05/01 08:17:11;;;;;;;7.63;3.63;;;;;;;15.71;55.12;101929.66;7389695;19;20011;-64
2022/05/01 08:22:15;;;;;;;7.63;3.33;;;;;;;15.79;55.35;101925.25;7388046;19;20048;-65
2022/05/01 08:24:42;;;;;;;10.52;3.22;;;;;;;15.87;53.72;101923.59;7387967;19;20170;-65
2022/05/01 08:27:09;;;;;;;6.53;3.05;;;;;;;15.91;53.78;101915.13;7387515;19;20042;-65
2022/05/01 08:29:38;;;;;;;8.88;3.45;;;;;;;15.96;55.31;101922.63;7385376;19;20078;-65
2022/05/01 08:32:06;;;;;;;13.25;4.13;;;;;;;16.01;nan;101915.84;7388126;19;20018;-63
2022/05/01 08:34:34;;;;;;;11.45;3.72;;;;;;;16.06;53.96;101913.53;7390435;19;20010;-65
2022/05/01 08:37:01;;;;;;;10.30;3.20;;;;;;;16.15;53.68;101914.41;7386474;19;20034;-64
2022/05/01 08:39:28;;;;;;;6.40;2.78;;;;;;;16.20;53.79;101915.56;7387645;19;20013;-64
2022/05/01 08:41:55;;;;;;;6.22;3.22;;;;;;;16.20;52.17;101909.44;7384007;19;20018;-65
2022/05/01 08:44:32;;;;;;;7.68;3.63;;;;;;;16.19;52.16;101905.13;7386162;19;20413;-66
2022/05/01 08:47:03;;;;;;;7.35;2.83;;;;;;;16.23;52.86;101914.41;7388892;19;20019;-66
2022/05/01 08:49:33;;;;;;;5.72;2.90;;;;;;;16.25;50.60;101915.09;7387615;19;20015;-66
2022/05/01 08:52:01;;;;;;;5.97;3.22;;;;;;;16.23;49.61;101909.09;7385067;19;20186;-64
2022/05/01 08:54:33;;;;;;;8.48;2.70;;;;;;;16.24;49.42;101914.25;7384631;19;20082;-64
2022/05/01 08:57:01;;;;;;;5.38;2.38;;;;;;;16.23;49.26;101917.06;7387114;19;20409;-64
2022/05/01 08:59:29;;;;;;;5.35;1.85;;;;;;;16.23;49.29;101917.91;7387448;19;20496;-64
2022/05/01 09:01:58;;;;;;;9.80;2.75;;;;;;;16.18;48.39;101920.22;7388058;19;20015;-65
2022/05/01 09:04:29;;;;;;;5.35;2.17;;;;;;;16.19;49.67;101908.59;7382791;19;20015;-65
2022/05/01 09:07:01;;;;;;;3.72;1.92;;;;;;;16.25;48.66;101912.44;7387931;19;20662;-65
2022/05/01 09:09:28;;;;;;;6.07;1.98;;;;;;;16.29;48.87;101913.75;7381808;19;20014;-65
2022/05/01 09:14:32;;;;;;;4.93;1.30;;;;;;;16.26;45.66;101908.75;7386558;19;20006;-64
2022/05/01 09:17:13;;;;;;;2.75;1.20;;;;;;;16.30;47.30;101909.28;7386290;19;20033;-64
2022/05/01 09:19:43;;;;;;;4.88;1.25;;;;;;;16.32;45.28;101913.44;7388587;19;20234;-65
2022/05/01 09:22:12;;;;;;;7.15;1.77;;;;;;;16.39;46.44;101905.66;7383230;19;20081;-66
2022/05/01 09:24:41;;;;;;;4.25;1.38;;;;;;;16.40;44.61;101916.13;7383995;19;20019;-63
2022/05/01 09:27:29;;;;;;;6.45;1.45;;;;;;;16.44;44.91;101912.13;7384319;19;20030;-64
2022/05/01 09:30:07;;;;;;;4.70;1.27;;;;;;;16.51;45.17;101920.25;7381730;19;20328;-66
2022/05/01 09:32:42;;;;;;;5.40;1.25;;;;;;;16.61;44.24;101918.28;7382421;19;20043;-63
2022/05/01 09:35:17;;;;;;;4.65;1.00;;;;;;;16.66;44.24;101911.50;7382934;19;21939;-67
2022/05/01 09:37:44;;;;;;;4.38;1.13;;;;;;;16.68;43.86;101919.31;7384517;19;20035;-66
2022/05/01 09:40:13;;;;;;;8.45;1.30;;;;;;;16.72;44.20;101915.31;7383711;19;20015;-63
2022/05/01 09:42:40;;;;;;;4.53;1.23;;;;;;;16.75;44.14;101914.19;7384186;19;20374;-65
2022/05/01 09:45:11;;;;;;;6.55;1.30;;;;;;;16.77;43.73;101909.50;7382368;19;20022;-65
2022/05/01 09:47:42;;;;;;;4.88;1.50;;;;;;;16.84;44.27;101914.00;7385308;19;20531;-64
2022/05/01 09:50:11;;;;;;;2.45;1.15;;;;;;;16.82;43.02;101902.69;7385204;19;20421;-66
2022/05/01 09:52:52;;;;;;;3.08;1.25;;;;;;;16.86;43.39;101906.69;7382350;19;20006;-64
2022/05/01 09:55:20;;;;;;;4.40;1.70;;;;;;;16.95;44.20;101907.53;7381541;19;20002;-65
2022/05/01 09:57:47;;;;;;;7.00;1.45;;;;;;;16.98;43.56;101909.81;7385474;19;20118;-65
2022/05/01 10:00:35;;;;;;;4.55;1.52;;;;;;;17.00;44.00;101907.84;7384992;19;20412;-66
2022/05/01 10:03:19;;;;;;;8.70;1.85;;;;;;;17.02;43.64;101906.66;7385244;19;20479;-65
2022/05/01 10:05:48;;;;;;;4.80;2.00;;;;;;;17.01;43.03;101902.38;7381727;19;20031;-63
2022/05/01 10:08:18;;;;;;;4.88;1.63;;;;;;;17.05;44.71;101909.00;7385666;19;20018;-65
2022/05/01 10:10:47;;;;;;;8.27;3.63;;;;;;;17.13;43.61;101902.81;7380647;19;20376;-64
2022/05/01 10:13:14;;;;;;;4.20;1.73;;;;;;;17.19;44.28;101904.81;7385790;19;20011;-63
2022/05/01 10:16:04;;;;;;;5.10;1.98;;;;;;;17.23;44.57;101900.81;7381665;19;20018;-66
2022/05/01 10:18:31;;;;;;;7.32;3.42;;;;;;;17.27;45.03;101896.00;7378654;19;20011;-66
2022/05/01 10:20:58;;;;;;;7.88;3.28;;;;;;;17.32;45.37;101899.78;7386025;19;20010;-64
2022/05/01 10:23:26;;;;;;;8.02;3.45;;;;;;;17.36;44.70;101895.81;7387953;19;20038;-64
2022/05/01 10:25:59;;;;;;;5.43;2.90;;;;;;;17.39;46.35;101894.63;7382418;19;20014;-65
2022/05/01 10:28:56;;;;;;;;;;;;;;;17.40;45.43;101893.63;7383246;19;20011;-64
2022/05/01 10:34:28;;;;;;;6.30;3.70;;;;;;;17.40;45.60;101888.31;7382368;19;20014;-65
2022/05/01 10:37:15;;;;;;;7.93;3.35;;;;;;;17.39;46.92;101884.81;7381390;19;20074;-63
2022/05/01 10:39:42;;;;;;;7.90;3.20;;;;;;;17.39;46.25;101889.31;7383581;19;20014;-65
2022/05/01 10:42:10;;;;;;;5.47;3.00;;;;;;;17.38;47.17;101883.16;7381977;19;20038;-65
2022/05/01 10:44:38;;;;;;;7.80;3.90;;;;;;;17.35;46.36;101875.50;7378334;19;20240;-65
2022/05/01 10:47:12;;;;;;;10.60;4.55;;;;;;;17.34;47.56;101876.50;7379818;19;20322;-67
2022/05/01 10:49:41;;;;;;;9.68;4.00;;;;;;;17.30;46.65;101885.84;7381259;19;20015;-63
2022/05/01 10:52:19;;;;;;;10.65;4.43;;;;;;;17.31;46.25;101879.53;7381661;19;20007;-65
2022/05/01 10:54:54;;;;;;;7.30;3.65;;;;;;;17.36;46.27;101879.00;7387904;19;20011;-63
2022/05/01 10:57:23;;;;;;;8.55;3.22;;;;;;;17.37;45.75;101875.34;7391034;19;20029;-64
2022/05/01 11:00:04;;;;;;;4.45;2.40;;;;;;;17.37;45.72;101870.03;7393086;19;20464;-65
2022/05/01 11:02:38;;;;;;;8.32;3.00;;;;;;;17.32;46.45;101867.06;7390502;19;20473;-66
2022/05/01 11:05:08;;;;;;;6.90;3.65;;;;;;;17.30;47.09;101871.72;7388616;19;20090;-66
2022/05/01 11:07:39;;;;;;;8.13;3.83;;;;;;;17.28;46.60;101868.38;7392495;19;20014;-64
2022/05/01 11:10:09;;;;;;;7.40;3.85;;;;;;;17.25;46.86;101863.41;7391169;19;20011;-64
2022/05/01 11:12:37;;;;;;;9.45;4.03;;;;;;;17.26;47.63;101871.22;7389410;19;20011;-66
2022/05/01 11:15:08;;;;;;;8.13;4.30;;;;;;;17.26;47.07;101867.72;7390898;19;20013;-63
2022/05/01 11:17:36;;;;;;;9.05;4.10;;;;;;;17.27;47.72;101870.19;7391581;19;20014;-66
2022/05/01 11:20:09;;;;;;;8.18;4.57;;;;;;;17.26;48.12;101865.06;7390839;19;20031;-65
2022/05/01 11:22:36;;;;;;;12.77;5.07;;;;;;;17.20;48.56;101853.28;7391137;19;20460;-64
2022/05/01 11:25:04;;;;;;;12.73;5.65;;;;;;;17.10;49.47;101860.63;7391685;19;20042;-65
2022/05/01 11:27:52;;;;;;;10.13;5.53;;;;;;;17.10;51.16;101855.31;7392993;19;20474;-62
2022/05/01 11:30:29;;;;;;;7.57;4.20;;;;;;;17.05;49.58;101857.63;7389539;19;20010;-64
2022/05/01 11:33:08;;;;;;;10.70;4.78;;;;;;;17.01;49.60;101861.66;7390120;19;20022;-63
2022/05/01 11:35:54;;;;;;;10.38;4.35;;;;;;;16.91;50.48;101861.81;7389181;19;20488;-64
2022/05/01 11:38:23;;;;;;;10.15;5.30;;;;;;;16.89;52.77;101855.84;7394195;19;20011;-65
2022/05/01 11:40:56;;;;;;;12.30;6.00;;;;;;;16.89;52.02;101857.66;7389681;19;20015;-64
2022/05/01 11:43:24;;;;;;;9.98;5.22;;;;;;;16.86;53.17;101850.03;7388664;19;20011;-64
2022/05/01 11:45:51;;;;;;;12.32;5.90;;;;;;;16.87;54.89;101855.16;7387626;19;20077;-63
2022/05/01 11:48:19;;;;;;;12.68;6.03;;;;;;;16.87;55.09;101846.34;7389598;19;20010;-64